createdAt,value
2023-03-15T00:01:07.976Z,93559.19
2023-03-15T00:03:37.430Z,93549.22
2023-03-15T00:06:06.387Z,93562.34
2023-03-15T00:08:34.575Z,93538.72
2023-03-15T00:11:03.905Z,93554.97
2023-03-15T00:13:32.579Z,93519.59
2023-03-15T00:16:03.073Z,93551.66
2023-03-15T00:18:31.109Z,93563.38
2023-03-15T00:20:59.409Z,93560.00
2023-03-15T00:23:27.580Z,93539.63
2023-03-15T00:25:55.919Z,93537.78
2023-03-15T00:28:25.193Z,93567.19
2023-03-15T00:31:04.812Z,93549.41
2023-03-15T00:33:35.060Z,93555.53
2023-03-15T00:36:06.121Z,93547.44
2023-03-15T00:38:34.556Z,93538.81
2023-03-15T00:41:07.201Z,93530.44
2023-03-15T00:43:36.653Z,93524.13
2023-03-15T00:46:06.025Z,93519.13
2023-03-15T00:48:35.368Z,93552.56
2023-03-15T00:51:05.061Z,93524.47
2023-03-15T00:53:33.038Z,93538.44
2023-03-15T00:56:05.708Z,93527.84
2023-03-15T00:58:33.601Z,93528.88
2023-03-15T01:01:07.136Z,93513.00
2023-03-15T01:03:36.859Z,93514.41
2023-03-15T01:06:08.767Z,93498.88
2023-03-15T01:08:37.097Z,93516.56
2023-03-15T01:11:06.977Z,93514.16
2023-03-15T01:13:35.118Z,93509.78
2023-03-15T01:16:05.002Z,93486.56
2023-03-15T01:18:33.019Z,93486.31
2023-03-15T01:21:01.536Z,93507.00
2023-03-15T01:23:29.405Z,93509.13
2023-03-15T01:26:01.248Z,93475.94
2023-03-15T01:28:29.463Z,93501.06
2023-03-15T01:30:59.461Z,93483.13
2023-03-15T01:33:29.919Z,93485.25
2023-03-15T01:36:03.118Z,93474.63
2023-03-15T01:38:31.689Z,93493.56
2023-03-15T01:40:59.681Z,93468.97
2023-03-15T01:43:29.349Z,93486.00
2023-03-15T01:46:25.582Z,93482.44
2023-03-15T01:49:01.500Z,93462.88
2023-03-15T01:51:34.791Z,93440.03
2023-03-15T01:54:08.070Z,93461.44
2023-03-15T01:56:39.618Z,93468.88
2023-03-15T01:59:13.245Z,93439.81
2023-03-15T02:01:45.938Z,93466.81
2023-03-15T02:04:20.608Z,93463.88
2023-03-15T02:06:50.628Z,93460.66
2023-03-15T02:09:22.126Z,93451.28
2023-03-15T02:11:50.126Z,93443.75
2023-03-15T02:14:18.711Z,93413.00
2023-03-15T02:16:46.685Z,93442.56
2023-03-15T02:19:30.238Z,93437.50
2023-03-15T02:22:12.290Z,93396.78
2023-03-15T02:24:48.791Z,93432.13
2023-03-15T02:27:23.481Z,93438.25
2023-03-15T02:29:51.490Z,93436.03
2023-03-15T02:32:19.414Z,93430.13
2023-03-15T02:34:47.344Z,93434.75
2023-03-15T02:37:15.399Z,93433.47
2023-03-15T02:39:43.288Z,93427.00
2023-03-15T02:42:11.553Z,93399.97
2023-03-15T02:44:43.080Z,93432.44
2023-03-15T02:47:14.784Z,93406.16
2023-03-15T02:49:46.263Z,93415.25
2023-03-15T02:52:14.856Z,93418.47
2023-03-15T02:54:43.469Z,93408.50
2023-03-15T02:57:12.364Z,93417.50
2023-03-15T02:59:42.994Z,93414.41
2023-03-15T03:02:12.805Z,93391.31
2023-03-15T03:04:41.709Z,93401.84
2023-03-15T03:07:09.845Z,93389.47
2023-03-15T03:09:37.749Z,93386.88
2023-03-15T03:12:06.421Z,93400.16
2023-03-15T03:14:34.391Z,93399.78
2023-03-15T03:17:03.723Z,93397.28
2023-03-15T03:19:31.582Z,93365.88
2023-03-15T03:21:59.471Z,93367.00
2023-03-15T03:24:27.597Z,93395.41
2023-03-15T03:26:58.330Z,93378.25
2023-03-15T03:29:27.274Z,93370.19
2023-03-15T03:31:55.810Z,93383.94
2023-03-15T03:34:25.092Z,93381.53
2023-03-15T03:36:53.377Z,93386.53
2023-03-15T03:39:21.320Z,93354.56
2023-03-15T03:41:49.973Z,93373.34
2023-03-15T03:44:18.415Z,93367.34
2023-03-15T03:46:46.332Z,93369.25
2023-03-15T03:49:14.850Z,93361.25
2023-03-15T03:51:44.189Z,93367.66
2023-03-15T03:54:12.085Z,93362.56
2023-03-15T03:56:40.226Z,93356.84
2023-03-15T03:59:08.214Z,93324.41
2023-03-15T04:01:36.123Z,93361.53
2023-03-15T04:04:03.998Z,93337.44
2023-03-15T04:06:32.515Z,93344.25
2023-03-15T04:09:05.181Z,93329.28
2023-03-15T04:11:36.307Z,93348.44
2023-03-15T04:14:04.226Z,93341.50
2023-03-15T04:16:32.191Z,93351.66
2023-03-15T04:19:00.148Z,93351.69
2023-03-15T04:21:31.848Z,93326.31
2023-03-15T04:24:01.669Z,93350.75
2023-03-15T04:26:30.221Z,93347.13
2023-03-15T04:29:00.847Z,93333.38
2023-03-15T04:31:28.963Z,93350.66
2023-03-15T04:33:57.724Z,93345.16
2023-03-15T04:36:25.694Z,93338.59
2023-03-15T04:39:04.304Z,93327.47
2023-03-15T04:41:35.888Z,93311.50
2023-03-15T04:44:04.718Z,93344.16
2023-03-15T04:46:33.049Z,93348.72
2023-03-15T04:49:01.069Z,93334.91
2023-03-15T04:51:28.982Z,93351.28
2023-03-15T04:53:56.930Z,93346.31
2023-03-15T04:56:24.953Z,93348.72
2023-03-15T04:58:54.253Z,93339.72
2023-03-15T05:01:23.112Z,93341.31
2023-03-15T05:03:51.137Z,93333.88
2023-03-15T05:06:19.032Z,93338.69
2023-03-15T05:08:47.126Z,93317.50
2023-03-15T05:11:15.139Z,93321.34
2023-03-15T05:13:43.025Z,93339.78
2023-03-15T05:16:12.252Z,93335.72
2023-03-15T05:18:41.050Z,93345.69
2023-03-15T05:21:08.976Z,93342.94
2023-03-15T05:23:36.870Z,93328.09
2023-03-15T05:26:04.943Z,93344.66
2023-03-15T05:28:32.899Z,93339.09
2023-03-15T05:31:02.487Z,93334.16
2023-03-15T05:33:31.819Z,93334.63
2023-03-15T05:35:59.935Z,93332.16
2023-03-15T05:38:27.995Z,93314.25
2023-03-15T05:40:55.969Z,93332.50
2023-03-15T05:43:23.903Z,93317.09
2023-03-15T05:45:52.332Z,93337.59
2023-03-15T05:48:20.388Z,93332.78
2023-03-15T05:50:50.013Z,93330.38
2023-03-15T05:53:17.916Z,93327.59
2023-03-15T05:55:45.895Z,93313.84
2023-03-15T05:58:13.869Z,93311.19
2023-03-15T06:00:41.791Z,93332.41
2023-03-15T06:03:09.793Z,93316.72
2023-03-15T06:05:37.716Z,93334.09
2023-03-15T06:08:07.151Z,93327.53
2023-03-15T06:10:35.340Z,93304.03
2023-03-15T06:13:03.350Z,93294.69
2023-03-15T06:15:31.266Z,93318.97
2023-03-15T06:17:59.290Z,93326.38
2023-03-15T06:20:27.473Z,93320.16
2023-03-15T06:22:55.536Z,93331.09
2023-03-15T06:25:25.065Z,93332.53
2023-03-15T06:27:53.038Z,93339.81
2023-03-15T06:30:21.329Z,93315.88
2023-03-15T06:32:49.384Z,93301.03
2023-03-15T06:35:17.530Z,93318.28
2023-03-15T06:37:45.519Z,93313.59
2023-03-15T06:40:14.393Z,93316.63
2023-03-15T06:42:43.859Z,93321.16
2023-03-15T06:45:12.490Z,93299.44
2023-03-15T06:47:40.544Z,93300.69
2023-03-15T06:50:09.682Z,93306.53
2023-03-15T06:52:38.797Z,93286.59
2023-03-15T06:55:07.612Z,93291.94
2023-03-15T06:57:35.560Z,93309.13
2023-03-15T07:00:11.450Z,93305.75
2023-03-15T07:02:39.426Z,93293.28
2023-03-15T07:05:08.372Z,93302.56
2023-03-15T07:07:36.390Z,93293.16
2023-03-15T07:10:04.648Z,93295.78
2023-03-15T07:12:32.679Z,93287.28
2023-03-15T07:15:00.567Z,93279.22
2023-03-15T07:17:30.394Z,93294.81
2023-03-15T07:19:58.402Z,93290.94
2023-03-15T07:22:26.797Z,93281.78
2023-03-15T07:24:54.771Z,93271.28
2023-03-15T07:27:22.718Z,93304.47
2023-03-15T07:29:50.648Z,93307.91
2023-03-15T07:32:18.823Z,93278.38
2023-03-15T07:34:48.196Z,93293.56
2023-03-15T07:37:17.476Z,93279.25
2023-03-15T07:39:45.493Z,93286.00
2023-03-15T07:42:13.760Z,93310.59
2023-03-15T07:44:41.743Z,93277.81
2023-03-15T07:47:09.864Z,93299.63
2023-03-15T07:49:37.841Z,93291.16
2023-03-15T07:52:08.034Z,93294.00
2023-03-15T07:54:36.037Z,93282.47
2023-03-15T07:57:04.190Z,93289.53
2023-03-15T07:59:32.553Z,93292.94
2023-03-15T08:02:02.779Z,93292.97
2023-03-15T08:04:30.939Z,93291.97
2023-03-15T08:06:59.026Z,93286.56
2023-03-15T08:09:28.630Z,93266.81
2023-03-15T08:11:56.605Z,93282.81
2023-03-15T08:14:24.733Z,93273.44
2023-03-15T08:16:53.009Z,93256.28
2023-03-15T08:19:22.192Z,93256.06
2023-03-15T08:21:54.015Z,93245.28
2023-03-15T08:24:22.709Z,93225.69
2023-03-15T08:26:52.628Z,93263.81
2023-03-15T08:29:20.663Z,93269.56
2023-03-15T08:31:48.642Z,93259.53
2023-03-15T08:34:17.195Z,93241.94
2023-03-15T08:36:47.541Z,93261.31
2023-03-15T08:39:16.230Z,93243.16
2023-03-15T08:41:45.679Z,93239.78
2023-03-15T08:44:15.108Z,93262.56
2023-03-15T08:46:43.281Z,93229.94
2023-03-15T08:49:11.545Z,93222.06
2023-03-15T08:51:39.565Z,93216.25
2023-03-15T08:54:08.857Z,93245.03
2023-03-15T08:56:37.352Z,93252.41
2023-03-15T08:59:06.463Z,93222.84
2023-03-15T09:01:36.059Z,93258.94
2023-03-15T09:04:05.632Z,93267.38
2023-03-15T09:06:33.760Z,93243.03
2023-03-15T09:09:02.246Z,93242.59
2023-03-15T09:11:30.296Z,93241.00
2023-03-15T09:13:58.252Z,93260.59
2023-03-15T09:16:26.306Z,93265.13
2023-03-15T09:18:55.760Z,93245.38
2023-03-15T09:21:24.781Z,93245.97
2023-03-15T09:23:52.845Z,93252.41
2023-03-15T09:26:23.523Z,93265.44
2023-03-15T09:28:51.546Z,93268.03
2023-03-15T09:31:19.647Z,93259.22
2023-03-15T09:33:47.662Z,93247.91
2023-03-15T09:36:18.478Z,93227.50
2023-03-15T09:38:47.904Z,93250.09
2023-03-15T09:41:22.986Z,93236.78
2023-03-15T09:44:06.777Z,93241.59
2023-03-15T09:46:42.099Z,93242.75
2023-03-15T09:49:15.622Z,93230.91
2023-03-15T09:52:26.339Z,93227.03
2023-03-15T09:55:28.466Z,93180.03
2023-03-15T09:58:01.648Z,93196.34
2023-03-15T10:00:40.305Z,93223.44
2023-03-15T10:03:17.834Z,93219.97
2023-03-15T10:05:49.019Z,93221.50
2023-03-15T10:08:22.503Z,93201.63
2023-03-15T10:10:55.556Z,93222.91
2023-03-15T10:13:42.498Z,93211.84
2023-03-15T10:16:24.179Z,93213.97
2023-03-15T10:19:06.939Z,93229.06
2023-03-15T10:21:42.995Z,93205.78
2023-03-15T10:24:20.429Z,93225.22
2023-03-15T10:26:50.460Z,93229.66
2023-03-15T10:29:22.395Z,93206.28
2023-03-15T10:31:52.794Z,93190.81
2023-03-15T10:34:22.002Z,93201.28
2023-03-15T10:36:54.466Z,93204.63
2023-03-15T10:39:26.178Z,93201.38
2023-03-15T10:41:54.817Z,93227.06
2023-03-15T10:44:25.832Z,93223.19
2023-03-15T10:47:21.607Z,93214.25
2023-03-15T10:49:50.905Z,93216.19
2023-03-15T10:52:36.159Z,93206.56
2023-03-15T10:55:11.751Z,93217.19
2023-03-15T10:57:40.987Z,93211.81
2023-03-15T11:00:27.202Z,93223.47
2023-03-15T11:03:03.500Z,93211.78
2023-03-15T11:05:33.275Z,93213.44
2023-03-15T11:08:02.405Z,93192.97
2023-03-15T11:10:36.342Z,93209.19
2023-03-15T11:13:12.258Z,93204.00
2023-03-15T11:15:47.993Z,93198.44
2023-03-15T11:18:20.471Z,93167.59
2023-03-15T11:20:48.528Z,93196.72
2023-03-15T11:23:20.538Z,93192.75
2023-03-15T11:25:50.577Z,93201.22
2023-03-15T11:28:21.608Z,93178.59
2023-03-15T11:30:50.218Z,93195.13
2023-03-15T11:33:34.860Z,93211.44
2023-03-15T11:36:11.171Z,93192.41
2023-03-15T11:38:44.195Z,93186.00
2023-03-15T11:41:22.963Z,93167.09
2023-03-15T11:44:02.516Z,93177.94
2023-03-15T11:46:35.658Z,93210.81
2023-03-15T11:49:11.116Z,93204.22
2023-03-15T11:51:39.346Z,93178.03
2023-03-15T11:54:13.426Z,93167.16
2023-03-15T11:56:55.322Z,93179.84
2023-03-15T11:59:28.600Z,93175.97
2023-03-15T12:01:59.126Z,93173.38
2023-03-15T12:04:51.067Z,93185.31
2023-03-15T12:07:31.429Z,93174.44
2023-03-15T12:10:21.724Z,93160.34
2023-03-15T12:12:59.038Z,93141.44
2023-03-15T12:15:54.389Z,93174.03
2023-03-15T12:21:33.679Z,93157.16
2023-03-15T12:24:05.394Z,93154.75
2023-03-15T12:26:42.112Z,93135.00
2023-03-15T12:29:20.092Z,93168.22
2023-03-15T12:32:05.653Z,93150.47
2023-03-15T12:34:45.379Z,93163.66
2023-03-15T12:37:21.657Z,93153.41
2023-03-15T12:43:03.271Z,93161.63
2023-03-15T12:45:45.715Z,93155.28
2023-03-15T12:48:28.325Z,93153.03
2023-03-15T12:51:01.764Z,93152.31
2023-03-15T12:53:38.852Z,93129.19
2023-03-15T12:56:39.488Z,93152.75
2023-03-15T12:59:18.277Z,93158.34
2023-03-15T13:01:48.264Z,93145.19
2023-03-15T13:04:16.528Z,93137.63
2023-03-15T13:07:04.610Z,93151.16
2023-03-15T13:09:53.963Z,93122.44
2023-03-15T13:12:29.910Z,93128.00
2023-03-15T13:15:04.019Z,93148.50
2023-03-15T13:17:41.640Z,93142.06
2023-03-15T13:20:24.410Z,93144.41
2023-03-15T13:23:02.202Z,93140.34
2023-03-15T13:25:38.305Z,93136.91
2023-03-15T13:28:12.073Z,93121.25
2023-03-15T13:30:42.191Z,93128.75
2023-03-15T13:33:22.553Z,93150.63
2023-03-15T13:35:56.933Z,93155.28
2023-03-15T13:38:30.965Z,93147.13
2023-03-15T13:41:00.657Z,93152.25
2023-03-15T13:43:32.239Z,93156.38
2023-03-15T13:46:01.357Z,93139.59
2023-03-15T13:48:32.730Z,93146.19
2023-03-15T13:51:06.290Z,93157.13
2023-03-15T13:53:48.907Z,93122.16
2023-03-15T13:56:20.361Z,93158.38
2023-03-15T13:58:50.150Z,93132.16
2023-03-15T14:01:18.888Z,93163.50
2023-03-15T14:03:55.989Z,93167.22
2023-03-15T14:06:26.779Z,93134.97
2023-03-15T14:08:56.100Z,93157.91
2023-03-15T14:11:37.529Z,93155.22
2023-03-15T14:14:23.186Z,93138.38
2023-03-15T14:17:04.286Z,93158.06
2023-03-15T14:19:36.948Z,93151.75
2023-03-15T14:22:15.520Z,93151.31
2023-03-15T14:24:45.006Z,93133.84
2023-03-15T14:27:18.020Z,93160.59
2023-03-15T14:29:49.192Z,93164.88
2023-03-15T14:32:28.447Z,93153.91
2023-03-15T14:35:05.848Z,93159.69
2023-03-15T14:37:39.549Z,93132.38
2023-03-15T14:40:16.928Z,93153.94
2023-03-15T14:42:45.549Z,93148.38
2023-03-15T14:45:14.216Z,93159.94
2023-03-15T14:47:55.946Z,93152.75
2023-03-15T14:50:28.635Z,93163.16
2023-03-15T14:52:58.418Z,93156.00
2023-03-15T14:55:33.417Z,93164.53
2023-03-15T14:58:01.574Z,93152.38
2023-03-15T15:00:29.569Z,93157.31
2023-03-15T15:02:58.544Z,93137.94
2023-03-15T15:05:35.311Z,93145.50
2023-03-15T15:08:06.147Z,93145.44
2023-03-15T15:10:35.444Z,93152.03
2023-03-15T15:13:06.806Z,93157.63
2023-03-15T15:15:53.509Z,93158.69
2023-03-15T15:18:24.318Z,93144.91
2023-03-15T15:20:56.108Z,93137.56
2023-03-15T15:23:26.921Z,93163.31
2023-03-15T15:25:57.544Z,93167.88
2023-03-15T15:28:34.547Z,93136.38
2023-03-15T15:31:03.066Z,93166.31
2023-03-15T15:33:34.161Z,93150.63
2023-03-15T15:36:07.472Z,93179.97
2023-03-15T15:38:38.873Z,93163.81
2023-03-15T15:41:12.135Z,93153.47
2023-03-15T15:43:40.095Z,93178.63
2023-03-15T15:46:12.623Z,93191.78
2023-03-15T15:48:41.617Z,93187.44
2023-03-15T15:51:21.408Z,93199.81
2023-03-15T15:53:49.469Z,93201.78
2023-03-15T15:56:18.429Z,93207.19
2023-03-15T15:58:47.694Z,93195.59
2023-03-15T16:01:16.874Z,93204.78
2023-03-15T16:03:46.961Z,93188.81
2023-03-15T16:06:19.486Z,93189.81
2023-03-15T16:08:50.169Z,93195.59
2023-03-15T16:11:19.492Z,93207.78
2023-03-15T16:13:49.147Z,93215.53
2023-03-15T16:16:18.471Z,93206.16
2023-03-15T16:18:46.728Z,93207.94
2023-03-15T16:21:26.647Z,93217.94
2023-03-15T16:23:58.335Z,93207.97
2023-03-15T16:26:26.660Z,93216.16
2023-03-15T16:28:54.687Z,93197.59
2023-03-15T16:31:23.115Z,93202.97
2023-03-15T16:33:51.339Z,93203.22
2023-03-15T16:36:22.350Z,93226.34
2023-03-15T16:38:50.751Z,93212.16
2023-03-15T16:41:19.274Z,93226.72
2023-03-15T16:43:49.203Z,93228.34
2023-03-15T16:46:17.901Z,93208.56
2023-03-15T16:48:45.994Z,93243.88
2023-03-15T16:51:16.849Z,93237.88
2023-03-15T16:53:46.350Z,93249.84
2023-03-15T16:56:16.462Z,93243.47
2023-03-15T16:58:45.350Z,93246.03
2023-03-15T17:01:13.451Z,93259.41
2023-03-15T17:03:42.817Z,93254.22
2023-03-15T17:06:20.184Z,93235.03
2023-03-15T17:08:50.624Z,93278.34
2023-03-15T17:11:19.577Z,93273.16
2023-03-15T17:13:47.625Z,93275.16
2023-03-15T17:16:16.765Z,93268.94
2023-03-15T17:18:46.126Z,93262.53
2023-03-15T17:21:15.391Z,93274.09
2023-03-15T17:23:44.071Z,93249.84
2023-03-15T17:26:16.890Z,93273.19
2023-03-15T17:28:45.599Z,93285.59
2023-03-15T17:31:31.042Z,93293.75
2023-03-15T17:33:59.097Z,93292.75
2023-03-15T17:36:30.366Z,93304.72
2023-03-15T17:38:58.236Z,93299.97
2023-03-15T17:41:29.833Z,93292.75
2023-03-15T17:43:58.173Z,93287.56
2023-03-15T17:46:30.303Z,93291.31
2023-03-15T17:49:01.365Z,93308.91
2023-03-15T17:51:31.363Z,93298.09
2023-03-15T17:54:00.415Z,93312.28
2023-03-15T17:56:30.437Z,93314.72
2023-03-15T17:58:58.506Z,93313.13
2023-03-15T18:01:29.201Z,93313.53
2023-03-15T18:03:57.630Z,93315.50
2023-03-15T18:06:25.758Z,93319.28
2023-03-15T18:08:53.770Z,93303.25
2023-03-15T18:11:26.298Z,93328.00
2023-03-15T18:13:56.231Z,93324.84
2023-03-15T18:16:24.266Z,93331.59
2023-03-15T18:18:52.235Z,93309.13
2023-03-15T18:21:22.546Z,93335.69
2023-03-15T18:23:50.946Z,93331.91
2023-03-15T18:26:19.765Z,93315.81
2023-03-15T18:28:49.007Z,93344.38
2023-03-15T18:31:21.034Z,93340.28
2023-03-15T18:33:50.207Z,93346.63
2023-03-15T18:36:18.943Z,93299.31
2023-03-15T18:38:47.234Z,93345.06
2023-03-15T18:41:20.481Z,93358.34
2023-03-15T18:43:51.706Z,93330.22
2023-03-15T18:46:24.364Z,93353.00
2023-03-15T18:48:53.599Z,93354.72
2023-03-15T18:51:23.141Z,93368.84
2023-03-15T18:53:51.184Z,93329.28
2023-03-15T18:56:21.471Z,93357.88
2023-03-15T18:58:50.206Z,93375.09
2023-03-15T19:01:22.410Z,93338.56
2023-03-15T19:03:51.580Z,93346.38
2023-03-15T19:06:20.550Z,93364.47
2023-03-15T19:08:53.245Z,93373.22
2023-03-15T19:11:21.990Z,93370.56
2023-03-15T19:13:51.308Z,93378.41
2023-03-15T19:16:21.362Z,93373.50
2023-03-15T19:18:51.130Z,93378.50
2023-03-15T19:21:20.251Z,93388.03
2023-03-15T19:23:48.838Z,93386.38
2023-03-15T19:26:16.940Z,93388.56
2023-03-15T19:28:44.968Z,93384.91
2023-03-15T19:31:14.861Z,93392.13
2023-03-15T19:33:44.262Z,93382.63
2023-03-15T19:36:12.262Z,93389.25
2023-03-15T19:38:40.239Z,93362.00
2023-03-15T19:41:12.441Z,93367.50
2023-03-15T19:43:42.441Z,93386.09
2023-03-15T19:46:13.537Z,93402.00
2023-03-15T19:48:41.633Z,93391.22
2023-03-15T19:51:11.520Z,93414.19
2023-03-15T19:53:40.592Z,93409.75
2023-03-15T19:56:10.140Z,93407.69
2023-03-15T19:58:38.074Z,93407.09
2023-03-15T20:01:06.189Z,93388.72
2023-03-15T20:03:35.293Z,93388.13
2023-03-15T20:06:09.053Z,93412.66
2023-03-15T20:08:39.339Z,93422.19
2023-03-15T20:11:08.062Z,93403.16
2023-03-15T20:13:37.088Z,93423.53
2023-03-15T20:16:06.005Z,93418.78
2023-03-15T20:18:34.421Z,93407.59
2023-03-15T20:21:02.534Z,93426.75
2023-03-15T20:23:30.929Z,93439.16
2023-03-15T20:26:09.905Z,93441.94
2023-03-15T20:28:40.873Z,93438.31
2023-03-15T20:31:09.760Z,93447.03
2023-03-15T20:33:37.868Z,93441.69
2023-03-15T20:36:08.859Z,93431.16
2023-03-15T20:38:38.111Z,93446.19
2023-03-15T20:41:08.171Z,93413.66
2023-03-15T20:43:36.440Z,93444.22
2023-03-15T20:46:05.083Z,93437.44
2023-03-15T20:48:35.148Z,93453.88
2023-03-15T20:51:04.500Z,93427.06
2023-03-15T20:53:33.832Z,93445.69
2023-03-15T20:56:01.985Z,93416.47
2023-03-15T20:58:31.587Z,93421.34
2023-03-15T21:01:04.600Z,93474.13
2023-03-15T21:03:34.138Z,93465.38
2023-03-15T21:06:03.204Z,93482.50
2023-03-15T21:08:31.640Z,93461.31
2023-03-15T21:10:59.677Z,93482.78
2023-03-15T21:13:27.801Z,93487.47
2023-03-15T21:15:57.316Z,93471.16
2023-03-15T21:18:27.680Z,93500.94
2023-03-15T21:20:59.962Z,93476.69
2023-03-15T21:23:31.617Z,93522.53
2023-03-15T21:26:03.306Z,93501.78
2023-03-15T21:28:32.331Z,93517.69
2023-03-15T21:31:01.722Z,93513.19
2023-03-15T21:33:31.222Z,93495.91
2023-03-15T21:36:00.120Z,93513.44
2023-03-15T21:38:28.829Z,93503.94
2023-03-15T21:40:59.320Z,93524.16
2023-03-15T21:43:27.874Z,93526.38
2023-03-15T21:45:58.426Z,93508.56
2023-03-15T21:48:27.866Z,93520.03
2023-03-15T21:50:55.810Z,93506.03
2023-03-15T21:53:25.858Z,93544.00
2023-03-15T21:55:56.916Z,93538.66
2023-03-15T21:58:24.926Z,93545.34
2023-03-15T22:00:58.677Z,93555.66
2023-03-15T22:03:28.626Z,93551.47
2023-03-15T22:05:56.593Z,93530.97
2023-03-15T22:08:25.087Z,93573.81
2023-03-15T22:10:57.439Z,93574.13
2023-03-15T22:13:30.018Z,93568.91
2023-03-15T22:15:58.126Z,93562.34
2023-03-15T22:18:28.678Z,93589.75
2023-03-15T22:20:57.646Z,93584.25
2023-03-15T22:23:25.799Z,93586.56
2023-03-15T22:25:55.467Z,93598.25
2023-03-15T22:28:25.297Z,93555.25
2023-03-15T22:30:53.704Z,93600.97
2023-03-15T22:33:22.966Z,93592.53
2023-03-15T22:35:59.744Z,93611.19
2023-03-15T22:38:27.865Z,93606.78
2023-03-15T22:41:03.349Z,93610.53
2023-03-15T22:43:31.466Z,93606.38
2023-03-15T22:45:59.804Z,93601.22
2023-03-15T22:48:27.965Z,93617.00
2023-03-15T22:51:02.010Z,93618.03
2023-03-15T22:53:30.492Z,93620.31
2023-03-15T22:55:59.202Z,93622.09
2023-03-15T22:58:27.594Z,93611.53
2023-03-15T23:00:56.278Z,93622.41
2023-03-15T23:03:24.680Z,93633.44
2023-03-15T23:05:52.624Z,93636.19
2023-03-15T23:08:22.858Z,93652.53
2023-03-15T23:10:50.992Z,93645.50
2023-03-15T23:13:19.401Z,93646.06
2023-03-15T23:15:47.377Z,93655.38
2023-03-15T23:18:15.452Z,93646.63
2023-03-15T23:20:43.824Z,93652.44
2023-03-15T23:23:12.031Z,93636.44
2023-03-15T23:25:43.580Z,93660.38
2023-03-15T23:28:11.816Z,93649.13
2023-03-15T23:30:41.943Z,93662.22
2023-03-15T23:33:09.934Z,93668.44
2023-03-15T23:35:37.884Z,93656.63
2023-03-15T23:38:05.908Z,93664.84
2023-03-15T23:40:34.063Z,93684.25
2023-03-15T23:43:04.378Z,93672.94
2023-03-15T23:45:32.437Z,93673.09
2023-03-15T23:48:00.472Z,93673.38
2023-03-15T23:50:28.826Z,93667.97
2023-03-15T23:52:57.562Z,93699.66
2023-03-15T23:55:25.720Z,93691.44
2023-03-15T23:57:53.733Z,93670.28
